RA67800 USHH-USTR
Flight info
| Callsign | RA67800 |
|---|---|
| Flight time | 2h 18m |
| Altitude | 10000 |
| Route | K0200F100 RILPA1A RILPA R124 NASDA T797 NERUG NERUG1P |
| Aircraft | C172/L-SFG/C |
Departure
| Time | 2026-05-05 11:50 |
|---|---|
| Airport | Khanty Mansiysk Airport (USHH) |
Arrival
| Time | 2026-05-05 14:08 |
|---|---|
| Airport | Roshchino International Airport (USTR) |
| Time | Latitude | Longitude | Altitude | Speed | Heading |
|---|---|---|---|---|---|
| 2026-05-05 11:37 | 61.02794 | 69.09660 | 141 ft | 0 kts | 345° |
| 2026-05-05 11:44 | 61.02803 | 69.09656 | 141 ft | 3 kts | 345° |
| 2026-05-05 11:45 | 61.02817 | 69.09634 | 141 ft | 4 kts | 281° |
| 2026-05-05 11:45 | 61.02810 | 69.09575 | 141 ft | 5 kts | 251° |
| 2026-05-05 11:45 | 61.02801 | 69.09496 | 141 ft | 6 kts | 255° |
| 2026-05-05 11:45 | 61.02789 | 69.09396 | 141 ft | 7 kts | 253° |
| 2026-05-05 11:46 | 61.02773 | 69.09309 | 141 ft | 6 kts | 240° |
| 2026-05-05 11:46 | 61.02777 | 69.09222 | 141 ft | 6 kts | 325° |
| 2026-05-05 11:46 | 61.02806 | 69.09200 | 141 ft | 0 kts | 342° |
| 2026-05-05 11:47 | 61.02808 | 69.09199 | 141 ft | 2 kts | 345° |
| 2026-05-05 11:48 | 61.02889 | 69.09154 | 142 ft | 6 kts | 338° |
| 2026-05-05 11:48 | 61.02912 | 69.09138 | 143 ft | 6 kts | 8° |
| 2026-05-05 11:48 | 61.02927 | 69.09173 | 143 ft | 0 kts | 76° |
| 2026-05-05 11:49 | 61.02928 | 69.09179 | 143 ft | 6 kts | 73° |
| 2026-05-05 11:49 | 61.02975 | 69.09611 | 139 ft | 54 kts | 75° |
| 2026-05-05 11:49 | 61.03101 | 69.10563 | 177 ft | 80 kts | 75° |
| 2026-05-05 11:50 | 61.03262 | 69.11762 | 266 ft | 94 kts | 74° |
| 2026-05-05 11:50 | 61.03457 | 69.13030 | 494 ft | 90 kts | 71° |
| 2026-05-05 11:50 | 61.03656 | 69.14258 | 736 ft | 91 kts | 75° |
| 2026-05-05 11:50 | 61.03815 | 69.15603 | 867 ft | 100 kts | 76° |
| 2026-05-05 11:51 | 61.03986 | 69.17034 | 1012 ft | 105 kts | 75° |
| 2026-05-05 11:51 | 61.04161 | 69.18533 | 1154 ft | 109 kts | 75° |
| 2026-05-05 11:51 | 61.04334 | 69.20058 | 1285 ft | 110 kts | 75° |
| 2026-05-05 11:51 | 61.04508 | 69.21589 | 1430 ft | 111 kts | 75° |
| 2026-05-05 11:52 | 61.04684 | 69.23142 | 1552 ft | 111 kts | 75° |
| 2026-05-05 11:52 | 61.04846 | 69.24706 | 1663 ft | 112 kts | 85° |
| 2026-05-05 11:52 | 61.04476 | 69.26074 | 1809 ft | 113 kts | 136° |
| 2026-05-05 11:52 | 61.03886 | 69.27170 | 1930 ft | 114 kts | 138° |
| 2026-05-05 11:53 | 61.03253 | 69.28133 | 2057 ft | 115 kts | 149° |
| 2026-05-05 11:53 | 61.02539 | 69.28865 | 2178 ft | 115 kts | 160° |
| 2026-05-05 11:53 | 61.01774 | 69.29374 | 2296 ft | 115 kts | 164° |
| 2026-05-05 11:53 | 61.00968 | 69.29443 | 2408 ft | 116 kts | 183° |
| 2026-05-05 11:54 | 61.00194 | 69.29052 | 2535 ft | 116 kts | 204° |
| 2026-05-05 11:54 | 60.99504 | 69.28194 | 2647 ft | 116 kts | 221° |
| 2026-05-05 11:54 | 60.98973 | 69.26942 | 2757 ft | 116 kts | 230° |
| 2026-05-05 11:54 | 60.98455 | 69.25671 | 2884 ft | 116 kts | 230° |
| 2026-05-05 11:55 | 60.97933 | 69.24396 | 3022 ft | 116 kts | 230° |
| 2026-05-05 11:55 | 60.97414 | 69.23123 | 3145 ft | 116 kts | 230° |
| 2026-05-05 11:55 | 60.96895 | 69.21853 | 3256 ft | 116 kts | 230° |
| 2026-05-05 11:55 | 60.96381 | 69.20605 | 3357 ft | 115 kts | 230° |
| 2026-05-05 11:56 | 60.95861 | 69.19345 | 3464 ft | 115 kts | 230° |
| 2026-05-05 11:56 | 60.95339 | 69.18091 | 3586 ft | 115 kts | 230° |
| 2026-05-05 11:56 | 60.94824 | 69.16831 | 3725 ft | 115 kts | 231° |
| 2026-05-05 11:56 | 60.94319 | 69.15582 | 3828 ft | 114 kts | 231° |
| 2026-05-05 11:57 | 60.93821 | 69.14304 | 3949 ft | 114 kts | 234° |
| 2026-05-05 11:57 | 60.93345 | 69.12996 | 4077 ft | 114 kts | 234° |
| 2026-05-05 11:57 | 60.92868 | 69.11693 | 4187 ft | 113 kts | 234° |
| 2026-05-05 11:57 | 60.92390 | 69.10392 | 4254 ft | 114 kts | 233° |
| 2026-05-05 11:58 | 60.91934 | 69.09093 | 4306 ft | 113 kts | 237° |
| 2026-05-05 11:58 | 60.91496 | 69.07739 | 4363 ft | 114 kts | 239° |
| 2026-05-05 11:58 | 60.91119 | 69.06307 | 4438 ft | 114 kts | 243° |
| 2026-05-05 11:58 | 60.90750 | 69.04877 | 4535 ft | 113 kts | 243° |
| 2026-05-05 11:59 | 60.90382 | 69.03447 | 4616 ft | 113 kts | 243° |
| 2026-05-05 11:59 | 60.90140 | 69.02499 | 4670 ft | 112 kts | 243° |
| 2026-05-05 11:59 | 60.89744 | 69.01107 | 4763 ft | 113 kts | 240° |
| 2026-05-05 11:59 | 60.89171 | 68.99318 | 4920 ft | 114 kts | 227° |
| 2026-05-05 12:00 | 60.88739 | 68.98689 | 4968 ft | 115 kts | 211° |
| 2026-05-05 12:00 | 60.87967 | 68.98188 | 5028 ft | 118 kts | 191° |
| 2026-05-05 12:00 | 60.87159 | 68.97886 | 5113 ft | 118 kts | 194° |
| 2026-05-05 12:00 | 60.86356 | 68.97529 | 5220 ft | 118 kts | 195° |
| 2026-05-05 12:01 | 60.85552 | 68.97156 | 5307 ft | 119 kts | 196° |
| 2026-05-05 12:01 | 60.84748 | 68.96774 | 5403 ft | 119 kts | 197° |
| 2026-05-05 12:01 | 60.83940 | 68.96382 | 5504 ft | 119 kts | 197° |
| 2026-05-05 12:01 | 60.83141 | 68.95996 | 5579 ft | 120 kts | 198° |
| 2026-05-05 12:02 | 60.82331 | 68.95603 | 5656 ft | 120 kts | 198° |
| 2026-05-05 12:02 | 60.81519 | 68.95210 | 5725 ft | 120 kts | 198° |
| 2026-05-05 12:02 | 60.80701 | 68.94814 | 5791 ft | 120 kts | 198° |
| 2026-05-05 12:02 | 60.79886 | 68.94420 | 5875 ft | 120 kts | 198° |
| 2026-05-05 12:03 | 60.79069 | 68.94026 | 5946 ft | 120 kts | 199° |
| 2026-05-05 12:03 | 60.78262 | 68.93634 | 6014 ft | 121 kts | 199° |
| 2026-05-05 12:03 | 60.77441 | 68.93238 | 6064 ft | 121 kts | 199° |
| 2026-05-05 12:03 | 60.76618 | 68.92840 | 6145 ft | 121 kts | 200° |
| 2026-05-05 12:04 | 60.75794 | 68.92443 | 6227 ft | 121 kts | 200° |
| 2026-05-05 12:04 | 60.74969 | 68.92045 | 6291 ft | 122 kts | 200° |
| 2026-05-05 12:04 | 60.74154 | 68.91652 | 6356 ft | 122 kts | 200° |
| 2026-05-05 12:04 | 60.73327 | 68.91254 | 6402 ft | 122 kts | 200° |
| 2026-05-05 12:05 | 60.72500 | 68.90855 | 6477 ft | 122 kts | 200° |
| 2026-05-05 12:05 | 60.71672 | 68.90455 | 6539 ft | 122 kts | 200° |
| 2026-05-05 12:05 | 60.70843 | 68.90057 | 6596 ft | 122 kts | 200° |
| 2026-05-05 12:05 | 60.70021 | 68.89661 | 6655 ft | 122 kts | 200° |
| 2026-05-05 12:06 | 60.69190 | 68.89263 | 6697 ft | 123 kts | 200° |
| 2026-05-05 12:06 | 60.68358 | 68.88863 | 6733 ft | 123 kts | 200° |
| 2026-05-05 12:06 | 60.67526 | 68.88463 | 6786 ft | 123 kts | 200° |
| 2026-05-05 12:06 | 60.66694 | 68.88063 | 6831 ft | 123 kts | 200° |
| 2026-05-05 12:07 | 60.65870 | 68.87668 | 6864 ft | 123 kts | 200° |
| 2026-05-05 12:07 | 60.65033 | 68.87267 | 6890 ft | 123 kts | 200° |
| 2026-05-05 12:07 | 60.64199 | 68.86867 | 6931 ft | 123 kts | 200° |
| 2026-05-05 12:07 | 60.63364 | 68.86468 | 6989 ft | 123 kts | 200° |
| 2026-05-05 12:08 | 60.62527 | 68.86067 | 7016 ft | 123 kts | 200° |
| 2026-05-05 12:08 | 60.61702 | 68.85672 | 7070 ft | 123 kts | 200° |
| 2026-05-05 12:08 | 60.60866 | 68.85275 | 7114 ft | 123 kts | 200° |
| 2026-05-05 12:08 | 60.60060 | 68.84730 | 7158 ft | 122 kts | 205° |
| 2026-05-05 12:09 | 60.59243 | 68.84226 | 7207 ft | 123 kts | 204° |
| 2026-05-05 12:09 | 60.58428 | 68.83712 | 7230 ft | 123 kts | 205° |
| 2026-05-05 12:09 | 60.57620 | 68.83194 | 7255 ft | 123 kts | 205° |
| 2026-05-05 12:09 | 60.56803 | 68.82670 | 7295 ft | 123 kts | 205° |
| 2026-05-05 12:10 | 60.55988 | 68.82143 | 7335 ft | 123 kts | 205° |
| 2026-05-05 12:10 | 60.55173 | 68.81618 | 7378 ft | 123 kts | 205° |
| 2026-05-05 12:10 | 60.54357 | 68.81093 | 7416 ft | 123 kts | 205° |
| 2026-05-05 12:10 | 60.53540 | 68.80566 | 7447 ft | 123 kts | 205° |
| 2026-05-05 12:11 | 60.52722 | 68.80039 | 7502 ft | 123 kts | 205° |
| 2026-05-05 12:11 | 60.51905 | 68.79513 | 7539 ft | 123 kts | 205° |
| 2026-05-05 12:11 | 60.51086 | 68.78987 | 7564 ft | 123 kts | 205° |
| 2026-05-05 12:11 | 60.50280 | 68.78446 | 7568 ft | 122 kts | 210° |
| 2026-05-05 12:12 | 60.49487 | 68.77805 | 7572 ft | 123 kts | 206° |
| 2026-05-05 12:12 | 60.48680 | 68.77220 | 7609 ft | 123 kts | 207° |
| 2026-05-05 12:12 | 60.47887 | 68.76629 | 7621 ft | 123 kts | 207° |
| 2026-05-05 12:12 | 60.47085 | 68.76023 | 7638 ft | 123 kts | 207° |
| 2026-05-05 12:13 | 60.46285 | 68.75419 | 7651 ft | 123 kts | 207° |
| 2026-05-05 12:13 | 60.45483 | 68.74811 | 7673 ft | 123 kts | 207° |
| 2026-05-05 12:13 | 60.44679 | 68.74202 | 7711 ft | 123 kts | 207° |
| 2026-05-05 12:13 | 60.43875 | 68.73592 | 7742 ft | 123 kts | 207° |
| 2026-05-05 12:14 | 60.43081 | 68.72992 | 7751 ft | 123 kts | 207° |
| 2026-05-05 12:14 | 60.42279 | 68.72384 | 7757 ft | 123 kts | 207° |
| 2026-05-05 12:14 | 60.41475 | 68.71776 | 7803 ft | 123 kts | 207° |
| 2026-05-05 12:14 | 60.40670 | 68.71168 | 7826 ft | 123 kts | 207° |
| 2026-05-05 12:15 | 60.39866 | 68.70559 | 7880 ft | 123 kts | 207° |
| 2026-05-05 12:15 | 60.39056 | 68.69945 | 7879 ft | 125 kts | 207° |
| 2026-05-05 12:15 | 60.38234 | 68.69325 | 7879 ft | 126 kts | 207° |
| 2026-05-05 12:15 | 60.37410 | 68.68704 | 7884 ft | 127 kts | 207° |
| 2026-05-05 12:16 | 60.36585 | 68.68084 | 7883 ft | 126 kts | 207° |
| 2026-05-05 12:16 | 60.35769 | 68.67467 | 7882 ft | 127 kts | 207° |
| 2026-05-05 12:16 | 60.34936 | 68.66840 | 7882 ft | 127 kts | 207° |
| 2026-05-05 12:16 | 60.34105 | 68.66214 | 7878 ft | 127 kts | 207° |
| 2026-05-05 12:17 | 60.33274 | 68.65589 | 7880 ft | 127 kts | 207° |
| 2026-05-05 12:17 | 60.32445 | 68.64965 | 7877 ft | 127 kts | 207° |
| 2026-05-05 12:17 | 60.31616 | 68.64342 | 7884 ft | 127 kts | 207° |
| 2026-05-05 12:17 | 60.30791 | 68.63722 | 7879 ft | 127 kts | 207° |
| 2026-05-05 12:18 | 60.29958 | 68.63097 | 7878 ft | 126 kts | 207° |
| 2026-05-05 12:18 | 60.29142 | 68.62485 | 7877 ft | 126 kts | 207° |
| 2026-05-05 12:18 | 60.28316 | 68.61865 | 7876 ft | 126 kts | 207° |
| 2026-05-05 12:18 | 60.27492 | 68.61248 | 7877 ft | 126 kts | 207° |
| 2026-05-05 12:19 | 60.26684 | 68.60642 | 7883 ft | 126 kts | 207° |
| 2026-05-05 12:19 | 60.25855 | 68.60021 | 7881 ft | 127 kts | 207° |
| 2026-05-05 12:19 | 60.25022 | 68.59397 | 7885 ft | 128 kts | 207° |
| 2026-05-05 12:19 | 60.24184 | 68.58769 | 7887 ft | 129 kts | 207° |
| 2026-05-05 12:20 | 60.23339 | 68.58136 | 7884 ft | 129 kts | 207° |
| 2026-05-05 12:20 | 60.22509 | 68.57519 | 7881 ft | 128 kts | 207° |
| 2026-05-05 12:20 | 60.21675 | 68.56897 | 7879 ft | 127 kts | 207° |
| 2026-05-05 12:20 | 60.20846 | 68.56278 | 7878 ft | 126 kts | 207° |
| 2026-05-05 12:21 | 60.20021 | 68.55662 | 7881 ft | 126 kts | 207° |
| 2026-05-05 12:21 | 60.19197 | 68.55046 | 7880 ft | 128 kts | 207° |
| 2026-05-05 12:21 | 60.18360 | 68.54423 | 7881 ft | 127 kts | 207° |
| 2026-05-05 12:21 | 60.17528 | 68.53803 | 7880 ft | 128 kts | 207° |
| 2026-05-05 12:22 | 60.16691 | 68.53180 | 7883 ft | 129 kts | 207° |
| 2026-05-05 12:22 | 60.15862 | 68.52563 | 7880 ft | 128 kts | 207° |
| 2026-05-05 12:22 | 60.15029 | 68.51945 | 7877 ft | 127 kts | 207° |
| 2026-05-05 12:22 | 60.14203 | 68.51331 | 7879 ft | 127 kts | 207° |
| 2026-05-05 12:23 | 60.13369 | 68.50710 | 7879 ft | 128 kts | 207° |
| 2026-05-05 12:23 | 60.12536 | 68.50092 | 7877 ft | 126 kts | 207° |
| 2026-05-05 12:23 | 60.11730 | 68.49497 | 7877 ft | 121 kts | 207° |
| 2026-05-05 12:23 | 60.10946 | 68.48915 | 7876 ft | 119 kts | 207° |
| 2026-05-05 12:24 | 60.10181 | 68.48347 | 7878 ft | 119 kts | 207° |
| 2026-05-05 12:24 | 60.09399 | 68.47767 | 7876 ft | 120 kts | 207° |
| 2026-05-05 12:24 | 60.08621 | 68.47192 | 7880 ft | 119 kts | 207° |
| 2026-05-05 12:24 | 60.07839 | 68.46612 | 7882 ft | 121 kts | 207° |
| 2026-05-05 12:25 | 60.07049 | 68.46028 | 7878 ft | 121 kts | 207° |
| 2026-05-05 12:25 | 60.06262 | 68.45446 | 7880 ft | 121 kts | 207° |
| 2026-05-05 12:25 | 60.05468 | 68.44859 | 7882 ft | 121 kts | 207° |
| 2026-05-05 12:25 | 60.04688 | 68.44283 | 7880 ft | 121 kts | 207° |
| 2026-05-05 12:26 | 60.03894 | 68.43697 | 7878 ft | 121 kts | 207° |
| 2026-05-05 12:26 | 60.03105 | 68.43115 | 7881 ft | 121 kts | 207° |
| 2026-05-05 12:26 | 60.02318 | 68.42534 | 7880 ft | 120 kts | 207° |
| 2026-05-05 12:26 | 60.01539 | 68.41959 | 7880 ft | 121 kts | 207° |
| 2026-05-05 12:27 | 60.00751 | 68.41380 | 7881 ft | 121 kts | 207° |
| 2026-05-05 12:27 | 59.99966 | 68.40802 | 7880 ft | 120 kts | 207° |
| 2026-05-05 12:27 | 59.99183 | 68.40226 | 7880 ft | 120 kts | 207° |
| 2026-05-05 12:27 | 59.98400 | 68.39650 | 7880 ft | 119 kts | 207° |
| 2026-05-05 12:28 | 59.97617 | 68.39073 | 7882 ft | 119 kts | 207° |
| 2026-05-05 12:28 | 59.96833 | 68.38496 | 7883 ft | 120 kts | 207° |
| 2026-05-05 12:28 | 59.96051 | 68.37922 | 7884 ft | 122 kts | 207° |
| 2026-05-05 12:28 | 59.95254 | 68.37338 | 7883 ft | 122 kts | 207° |
| 2026-05-05 12:29 | 59.94461 | 68.36756 | 7881 ft | 121 kts | 207° |
| 2026-05-05 12:29 | 59.93675 | 68.36179 | 7885 ft | 120 kts | 207° |
| 2026-05-05 12:29 | 59.92879 | 68.35595 | 7886 ft | 123 kts | 207° |
| 2026-05-05 12:29 | 59.92080 | 68.35010 | 7882 ft | 122 kts | 207° |
| 2026-05-05 12:30 | 59.91337 | 68.34273 | 7882 ft | 118 kts | 214° |
| 2026-05-05 12:30 | 59.90597 | 68.33527 | 7882 ft | 119 kts | 213° |
| 2026-05-05 12:30 | 59.89866 | 68.32788 | 7878 ft | 119 kts | 213° |
| 2026-05-05 12:30 | 59.89126 | 68.32035 | 7879 ft | 118 kts | 214° |
| 2026-05-05 12:31 | 59.88393 | 68.31285 | 7878 ft | 119 kts | 214° |
| 2026-05-05 12:31 | 59.87669 | 68.30544 | 7877 ft | 118 kts | 214° |
| 2026-05-05 12:31 | 59.86940 | 68.29798 | 7876 ft | 118 kts | 214° |
| 2026-05-05 12:31 | 59.86212 | 68.29054 | 7877 ft | 118 kts | 214° |
| 2026-05-05 12:32 | 59.85482 | 68.28307 | 7878 ft | 117 kts | 214° |
| 2026-05-05 12:32 | 59.84763 | 68.27572 | 7880 ft | 118 kts | 214° |
| 2026-05-05 12:32 | 59.84032 | 68.26824 | 7881 ft | 119 kts | 214° |
| 2026-05-05 12:32 | 59.83294 | 68.26069 | 7885 ft | 119 kts | 214° |
| 2026-05-05 12:33 | 59.82549 | 68.25309 | 7884 ft | 120 kts | 213° |
| 2026-05-05 12:33 | 59.81811 | 68.24557 | 7882 ft | 119 kts | 213° |
| 2026-05-05 12:33 | 59.81085 | 68.23818 | 7882 ft | 118 kts | 214° |
| 2026-05-05 12:33 | 59.80349 | 68.23067 | 7879 ft | 119 kts | 214° |
| 2026-05-05 12:34 | 59.79616 | 68.22321 | 7878 ft | 118 kts | 214° |
| 2026-05-05 12:34 | 59.78886 | 68.21578 | 7878 ft | 118 kts | 214° |
| 2026-05-05 12:34 | 59.78157 | 68.20836 | 7883 ft | 118 kts | 214° |
| 2026-05-05 12:34 | 59.77424 | 68.20089 | 7882 ft | 119 kts | 213° |
| 2026-05-05 12:35 | 59.76685 | 68.19338 | 7882 ft | 120 kts | 213° |
| 2026-05-05 12:35 | 59.75943 | 68.18584 | 7884 ft | 119 kts | 213° |
| 2026-05-05 12:35 | 59.75206 | 68.17836 | 7881 ft | 118 kts | 213° |
| 2026-05-05 12:35 | 59.74481 | 68.17100 | 7879 ft | 118 kts | 213° |
| 2026-05-05 12:36 | 59.73749 | 68.16358 | 7879 ft | 118 kts | 213° |
| 2026-05-05 12:36 | 59.73018 | 68.15617 | 7879 ft | 118 kts | 213° |
| 2026-05-05 12:36 | 59.72290 | 68.14878 | 7879 ft | 118 kts | 213° |
| 2026-05-05 12:36 | 59.71558 | 68.14136 | 7879 ft | 119 kts | 213° |
| 2026-05-05 12:37 | 59.70820 | 68.13388 | 7877 ft | 119 kts | 213° |
| 2026-05-05 12:37 | 59.70094 | 68.12655 | 7875 ft | 118 kts | 213° |
| 2026-05-05 12:37 | 59.69361 | 68.11913 | 7878 ft | 118 kts | 213° |
| 2026-05-05 12:37 | 59.68629 | 68.11173 | 7881 ft | 118 kts | 213° |
| 2026-05-05 12:38 | 59.67895 | 68.10431 | 7878 ft | 118 kts | 213° |
| 2026-05-05 12:38 | 59.67172 | 68.09701 | 7883 ft | 117 kts | 213° |
| 2026-05-05 12:38 | 59.66442 | 68.08965 | 7880 ft | 117 kts | 213° |
| 2026-05-05 12:38 | 59.65712 | 68.08227 | 7882 ft | 118 kts | 213° |
| 2026-05-05 12:39 | 59.64980 | 68.07490 | 7883 ft | 118 kts | 213° |
| 2026-05-05 12:39 | 59.64248 | 68.06751 | 7882 ft | 118 kts | 213° |
| 2026-05-05 12:39 | 59.63523 | 68.06021 | 7883 ft | 118 kts | 213° |
| 2026-05-05 12:39 | 59.62785 | 68.05277 | 7879 ft | 119 kts | 213° |
| 2026-05-05 12:40 | 59.62043 | 68.04530 | 7880 ft | 119 kts | 213° |
| 2026-05-05 12:40 | 59.61303 | 68.03786 | 7878 ft | 119 kts | 213° |
| 2026-05-05 12:40 | 59.60578 | 68.03058 | 7878 ft | 118 kts | 213° |
| 2026-05-05 12:40 | 59.59845 | 68.02320 | 7877 ft | 118 kts | 213° |
| 2026-05-05 12:41 | 59.59114 | 68.01586 | 7875 ft | 118 kts | 213° |
| 2026-05-05 12:41 | 59.58384 | 68.00853 | 7882 ft | 118 kts | 213° |
| 2026-05-05 12:41 | 59.57647 | 68.00113 | 7879 ft | 119 kts | 213° |
| 2026-05-05 12:41 | 59.56908 | 67.99371 | 7881 ft | 119 kts | 212° |
| 2026-05-05 12:42 | 59.56171 | 67.98633 | 7879 ft | 118 kts | 212° |
| 2026-05-05 12:42 | 59.55446 | 67.97906 | 7878 ft | 118 kts | 212° |
| 2026-05-05 12:42 | 59.54707 | 67.97166 | 7879 ft | 119 kts | 212° |
| 2026-05-05 12:42 | 59.53966 | 67.96424 | 7881 ft | 119 kts | 212° |
| 2026-05-05 12:43 | 59.53233 | 67.95689 | 7880 ft | 120 kts | 212° |
| 2026-05-05 12:43 | 59.52487 | 67.94944 | 7880 ft | 119 kts | 212° |
| 2026-05-05 12:43 | 59.51746 | 67.94203 | 7882 ft | 120 kts | 212° |
| 2026-05-05 12:43 | 59.50995 | 67.93452 | 7884 ft | 122 kts | 212° |
| 2026-05-05 12:44 | 59.50236 | 67.92695 | 7883 ft | 121 kts | 212° |
| 2026-05-05 12:44 | 59.49497 | 67.91958 | 7880 ft | 120 kts | 212° |
| 2026-05-05 12:44 | 59.48756 | 67.91218 | 7881 ft | 120 kts | 212° |
| 2026-05-05 12:44 | 59.48015 | 67.90478 | 7877 ft | 119 kts | 212° |
| 2026-05-05 12:45 | 59.47273 | 67.89739 | 7882 ft | 120 kts | 212° |
| 2026-05-05 12:45 | 59.46530 | 67.88999 | 7879 ft | 120 kts | 212° |
| 2026-05-05 12:45 | 59.45787 | 67.88259 | 7877 ft | 119 kts | 212° |
| 2026-05-05 12:45 | 59.45045 | 67.87522 | 7882 ft | 119 kts | 212° |
| 2026-05-05 12:46 | 59.44555 | 67.87033 | 7884 ft | 120 kts | 212° |
| 2026-05-05 12:46 | 59.43809 | 67.86291 | 7884 ft | 121 kts | 212° |
| 2026-05-05 12:46 | 59.42819 | 67.85307 | 7879 ft | 120 kts | 212° |
| 2026-05-05 12:46 | 59.42323 | 67.84815 | 7881 ft | 120 kts | 212° |
| 2026-05-05 12:47 | 59.41577 | 67.84073 | 7882 ft | 120 kts | 212° |
| 2026-05-05 12:47 | 59.40829 | 67.83330 | 7882 ft | 120 kts | 212° |
| 2026-05-05 12:47 | 59.40084 | 67.82592 | 7881 ft | 119 kts | 212° |
| 2026-05-05 12:47 | 59.39352 | 67.81865 | 7882 ft | 120 kts | 212° |
| 2026-05-05 12:48 | 59.38605 | 67.81124 | 7883 ft | 120 kts | 212° |
| 2026-05-05 12:48 | 59.37856 | 67.80383 | 7880 ft | 120 kts | 212° |
| 2026-05-05 12:48 | 59.37111 | 67.79645 | 7881 ft | 120 kts | 212° |
| 2026-05-05 12:48 | 59.36363 | 67.78904 | 7881 ft | 120 kts | 212° |
| 2026-05-05 12:49 | 59.35620 | 67.78169 | 7883 ft | 121 kts | 212° |
| 2026-05-05 12:49 | 59.34871 | 67.77428 | 7885 ft | 120 kts | 212° |
| 2026-05-05 12:49 | 59.34122 | 67.76688 | 7894 ft | 121 kts | 212° |
| 2026-05-05 12:49 | 59.33371 | 67.75946 | 7929 ft | 121 kts | 212° |
| 2026-05-05 12:50 | 59.32618 | 67.75203 | 7954 ft | 121 kts | 212° |
| 2026-05-05 12:50 | 59.31865 | 67.74460 | 7995 ft | 121 kts | 212° |
| 2026-05-05 12:50 | 59.31110 | 67.73714 | 8018 ft | 121 kts | 212° |
| 2026-05-05 12:50 | 59.30365 | 67.72980 | 8042 ft | 122 kts | 212° |
| 2026-05-05 12:51 | 59.29610 | 67.72236 | 8078 ft | 122 kts | 211° |
| 2026-05-05 12:51 | 59.28850 | 67.71487 | 8101 ft | 122 kts | 212° |
| 2026-05-05 12:51 | 59.28093 | 67.70742 | 8119 ft | 122 kts | 211° |
| 2026-05-05 12:51 | 59.27336 | 67.69997 | 8130 ft | 122 kts | 211° |
| 2026-05-05 12:52 | 59.26576 | 67.69250 | 8146 ft | 122 kts | 211° |
| 2026-05-05 12:52 | 59.25817 | 67.68503 | 8160 ft | 122 kts | 211° |
| 2026-05-05 12:52 | 59.25057 | 67.67758 | 8192 ft | 122 kts | 211° |
| 2026-05-05 12:52 | 59.24306 | 67.67019 | 8198 ft | 122 kts | 211° |
| 2026-05-05 12:53 | 59.23542 | 67.66269 | 8202 ft | 122 kts | 212° |
| 2026-05-05 12:53 | 59.22791 | 67.65531 | 8060 ft | 120 kts | 212° |
| 2026-05-05 12:53 | 59.22025 | 67.64775 | 7894 ft | 126 kts | 211° |
| 2026-05-05 12:53 | 59.21248 | 67.64017 | 7900 ft | 124 kts | 211° |
| 2026-05-05 12:54 | 59.19736 | 67.62538 | 7896 ft | 122 kts | 211° |
| 2026-05-05 12:54 | 59.18979 | 67.61798 | 7900 ft | 121 kts | 211° |
| 2026-05-05 12:54 | 59.18223 | 67.61058 | 7902 ft | 121 kts | 211° |
| 2026-05-05 12:55 | 59.17466 | 67.60318 | 7900 ft | 122 kts | 211° |
| 2026-05-05 12:55 | 59.16705 | 67.59574 | 7896 ft | 122 kts | 211° |
| 2026-05-05 12:55 | 59.15952 | 67.58839 | 7895 ft | 121 kts | 211° |
| 2026-05-05 12:55 | 59.15206 | 67.58111 | 7893 ft | 121 kts | 211° |
| 2026-05-05 12:56 | 59.14451 | 67.57372 | 7895 ft | 121 kts | 211° |
| 2026-05-05 12:56 | 59.13690 | 67.56631 | 7895 ft | 123 kts | 211° |
| 2026-05-05 12:56 | 59.12934 | 67.55894 | 7889 ft | 122 kts | 211° |
| 2026-05-05 12:56 | 59.12174 | 67.55155 | 7894 ft | 121 kts | 211° |
| 2026-05-05 12:57 | 59.11422 | 67.54422 | 7887 ft | 121 kts | 211° |
| 2026-05-05 12:57 | 59.10671 | 67.53692 | 7889 ft | 121 kts | 211° |
| 2026-05-05 12:57 | 59.09919 | 67.52960 | 7888 ft | 120 kts | 211° |
| 2026-05-05 12:57 | 59.09176 | 67.52237 | 7890 ft | 121 kts | 211° |
| 2026-05-05 12:58 | 59.08416 | 67.51498 | 7887 ft | 123 kts | 211° |
| 2026-05-05 12:58 | 59.07649 | 67.50753 | 7891 ft | 123 kts | 211° |
| 2026-05-05 12:58 | 59.06889 | 67.50016 | 7890 ft | 121 kts | 211° |
| 2026-05-05 12:58 | 59.06127 | 67.49276 | 7895 ft | 123 kts | 211° |
| 2026-05-05 12:59 | 59.05368 | 67.48539 | 7893 ft | 124 kts | 211° |
| 2026-05-05 12:59 | 59.04598 | 67.47793 | 7889 ft | 124 kts | 211° |
| 2026-05-05 12:59 | 59.03830 | 67.47050 | 7888 ft | 122 kts | 211° |
| 2026-05-05 13:00 | 59.02316 | 67.45584 | 7887 ft | 121 kts | 211° |
| 2026-05-05 13:00 | 59.01561 | 67.44853 | 7885 ft | 121 kts | 211° |
| 2026-05-05 13:01 | 58.99301 | 67.42667 | 7881 ft | 123 kts | 211° |
| 2026-05-05 13:01 | 58.98533 | 67.41926 | 7888 ft | 123 kts | 211° |
| 2026-05-05 13:01 | 58.97769 | 67.41190 | 7887 ft | 122 kts | 211° |
| 2026-05-05 13:01 | 58.97004 | 67.40452 | 7892 ft | 123 kts | 211° |
| 2026-05-05 13:02 | 58.96240 | 67.39714 | 7885 ft | 123 kts | 211° |
| 2026-05-05 13:02 | 58.95476 | 67.38979 | 7885 ft | 122 kts | 211° |
| 2026-05-05 13:02 | 58.94718 | 67.38250 | 7883 ft | 121 kts | 210° |
| 2026-05-05 13:02 | 58.93962 | 67.37521 | 7892 ft | 122 kts | 211° |
| 2026-05-05 13:03 | 58.93202 | 67.36789 | 7890 ft | 124 kts | 210° |
| 2026-05-05 13:03 | 58.92432 | 67.36048 | 7890 ft | 123 kts | 210° |
| 2026-05-05 13:03 | 58.91666 | 67.35312 | 7886 ft | 123 kts | 210° |
| 2026-05-05 13:03 | 58.90896 | 67.34572 | 7888 ft | 123 kts | 210° |
| 2026-05-05 13:04 | 58.90140 | 67.33847 | 7887 ft | 122 kts | 210° |
| 2026-05-05 13:04 | 58.89378 | 67.33115 | 7882 ft | 123 kts | 210° |
| 2026-05-05 13:04 | 58.88608 | 67.32377 | 7881 ft | 123 kts | 210° |
| 2026-05-05 13:04 | 58.87846 | 67.31647 | 7888 ft | 121 kts | 210° |
| 2026-05-05 13:05 | 58.87096 | 67.30928 | 7890 ft | 121 kts | 210° |
| 2026-05-05 13:05 | 58.86338 | 67.30202 | 7890 ft | 121 kts | 210° |
| 2026-05-05 13:05 | 58.85579 | 67.29475 | 7890 ft | 122 kts | 210° |
| 2026-05-05 13:05 | 58.84814 | 67.28742 | 7888 ft | 123 kts | 210° |
| 2026-05-05 13:06 | 58.84055 | 67.28017 | 7888 ft | 123 kts | 210° |
| 2026-05-05 13:06 | 58.83282 | 67.27277 | 7895 ft | 124 kts | 210° |
| 2026-05-05 13:06 | 58.82502 | 67.26532 | 7894 ft | 124 kts | 210° |
| 2026-05-05 13:06 | 58.81731 | 67.25795 | 7891 ft | 123 kts | 210° |
| 2026-05-05 13:07 | 58.80963 | 67.25062 | 7894 ft | 123 kts | 210° |
| 2026-05-05 13:07 | 58.80194 | 67.24327 | 7886 ft | 124 kts | 210° |
| 2026-05-05 13:07 | 58.79422 | 67.23592 | 7889 ft | 123 kts | 210° |
| 2026-05-05 13:07 | 58.78663 | 67.22869 | 7887 ft | 122 kts | 210° |
| 2026-05-05 13:08 | 58.77900 | 67.22142 | 7885 ft | 122 kts | 210° |
| 2026-05-05 13:08 | 58.77137 | 67.21415 | 7883 ft | 122 kts | 210° |
| 2026-05-05 13:08 | 58.76367 | 67.20682 | 7889 ft | 124 kts | 210° |
| 2026-05-05 13:08 | 58.75592 | 67.19945 | 7895 ft | 124 kts | 209° |
| 2026-05-05 13:09 | 58.74816 | 67.19207 | 7889 ft | 124 kts | 209° |
| 2026-05-05 13:09 | 58.74055 | 67.18485 | 7890 ft | 124 kts | 209° |
| 2026-05-05 13:09 | 58.73301 | 67.17767 | 7884 ft | 124 kts | 209° |
| 2026-05-05 13:09 | 58.72529 | 67.17035 | 7891 ft | 124 kts | 209° |
| 2026-05-05 13:10 | 58.71751 | 67.16296 | 7887 ft | 125 kts | 209° |
| 2026-05-05 13:10 | 58.70974 | 67.15559 | 7889 ft | 124 kts | 209° |
| 2026-05-05 13:10 | 58.70201 | 67.14826 | 7882 ft | 123 kts | 209° |
| 2026-05-05 13:10 | 58.69431 | 67.14098 | 7883 ft | 123 kts | 209° |
| 2026-05-05 13:11 | 58.68655 | 67.13362 | 7886 ft | 125 kts | 209° |
| 2026-05-05 13:11 | 58.67880 | 67.12627 | 7885 ft | 125 kts | 209° |
| 2026-05-05 13:11 | 58.67095 | 67.11885 | 7879 ft | 125 kts | 209° |
| 2026-05-05 13:11 | 58.66311 | 67.11144 | 7885 ft | 126 kts | 209° |
| 2026-05-05 13:12 | 58.65525 | 67.10402 | 7884 ft | 126 kts | 209° |
| 2026-05-05 13:12 | 58.64739 | 67.09658 | 7888 ft | 126 kts | 209° |
| 2026-05-05 13:12 | 58.63945 | 67.08909 | 7887 ft | 127 kts | 209° |
| 2026-05-05 13:12 | 58.63162 | 67.08170 | 7888 ft | 127 kts | 208° |
| 2026-05-05 13:13 | 58.62371 | 67.07423 | 7883 ft | 126 kts | 209° |
| 2026-05-05 13:13 | 58.61582 | 67.06680 | 7886 ft | 126 kts | 208° |
| 2026-05-05 13:13 | 58.60797 | 67.05937 | 7886 ft | 126 kts | 209° |
| 2026-05-05 13:13 | 58.60011 | 67.05200 | 7882 ft | 125 kts | 208° |
| 2026-05-05 13:14 | 58.59229 | 67.04465 | 7878 ft | 125 kts | 208° |
| 2026-05-05 13:14 | 58.58455 | 67.03737 | 7885 ft | 125 kts | 208° |
| 2026-05-05 13:14 | 58.57670 | 67.02998 | 7882 ft | 126 kts | 208° |
| 2026-05-05 13:14 | 58.56882 | 67.02256 | 7879 ft | 126 kts | 208° |
| 2026-05-05 13:15 | 58.56096 | 67.01518 | 7877 ft | 125 kts | 208° |
| 2026-05-05 13:15 | 58.55312 | 67.00782 | 7883 ft | 126 kts | 208° |
| 2026-05-05 13:15 | 58.54533 | 67.00051 | 7880 ft | 126 kts | 208° |
| 2026-05-05 13:15 | 58.53743 | 66.99309 | 7874 ft | 126 kts | 208° |
| 2026-05-05 13:16 | 58.52953 | 66.98569 | 7876 ft | 126 kts | 208° |
| 2026-05-05 13:16 | 58.52174 | 66.97839 | 7884 ft | 126 kts | 208° |
| 2026-05-05 13:16 | 58.51381 | 66.97096 | 7886 ft | 127 kts | 208° |
| 2026-05-05 13:16 | 58.50583 | 66.96349 | 7882 ft | 127 kts | 208° |
| 2026-05-05 13:17 | 58.49793 | 66.95610 | 7877 ft | 126 kts | 208° |
| 2026-05-05 13:17 | 58.49006 | 66.94874 | 7881 ft | 126 kts | 208° |
| 2026-05-05 13:17 | 58.48222 | 66.94141 | 7880 ft | 125 kts | 208° |
| 2026-05-05 13:17 | 58.47446 | 66.93416 | 7881 ft | 125 kts | 208° |
| 2026-05-05 13:18 | 58.46660 | 66.92682 | 7872 ft | 126 kts | 208° |
| 2026-05-05 13:18 | 58.45874 | 66.91949 | 7883 ft | 125 kts | 208° |
| 2026-05-05 13:18 | 58.45098 | 66.91225 | 7881 ft | 125 kts | 208° |
| 2026-05-05 13:18 | 58.44313 | 66.90493 | 7874 ft | 126 kts | 208° |
| 2026-05-05 13:19 | 58.43525 | 66.89758 | 7879 ft | 126 kts | 208° |
| 2026-05-05 13:19 | 58.42739 | 66.89026 | 7875 ft | 126 kts | 208° |
| 2026-05-05 13:19 | 58.41954 | 66.88295 | 7883 ft | 126 kts | 208° |
| 2026-05-05 13:19 | 58.41163 | 66.87559 | 7875 ft | 126 kts | 208° |
| 2026-05-05 13:20 | 58.40376 | 66.86827 | 7879 ft | 126 kts | 208° |
| 2026-05-05 13:20 | 58.39597 | 66.86102 | 7884 ft | 127 kts | 208° |
| 2026-05-05 13:20 | 58.38799 | 66.85360 | 7883 ft | 128 kts | 208° |
| 2026-05-05 13:20 | 58.38000 | 66.84619 | 7884 ft | 127 kts | 208° |
| 2026-05-05 13:21 | 58.37203 | 66.83879 | 7884 ft | 127 kts | 208° |
| 2026-05-05 13:21 | 58.36405 | 66.83138 | 7884 ft | 127 kts | 208° |
| 2026-05-05 13:21 | 58.35616 | 66.82408 | 7887 ft | 128 kts | 208° |
| 2026-05-05 13:21 | 58.34815 | 66.81665 | 7887 ft | 128 kts | 208° |
| 2026-05-05 13:22 | 58.34019 | 66.80927 | 7880 ft | 127 kts | 208° |
| 2026-05-05 13:22 | 58.33226 | 66.80193 | 7884 ft | 127 kts | 208° |
| 2026-05-05 13:22 | 58.32431 | 66.79458 | 7879 ft | 127 kts | 208° |
| 2026-05-05 13:22 | 58.31635 | 66.78721 | 7882 ft | 127 kts | 208° |
| 2026-05-05 13:23 | 58.30838 | 66.77984 | 7878 ft | 127 kts | 208° |
| 2026-05-05 13:23 | 58.30045 | 66.77252 | 7878 ft | 127 kts | 208° |
| 2026-05-05 13:23 | 58.29260 | 66.76526 | 7880 ft | 126 kts | 208° |
| 2026-05-05 13:23 | 58.28470 | 66.75797 | 7879 ft | 126 kts | 208° |
| 2026-05-05 13:24 | 58.27682 | 66.75070 | 7881 ft | 126 kts | 208° |
| 2026-05-05 13:24 | 58.26890 | 66.74340 | 7887 ft | 126 kts | 208° |
| 2026-05-05 13:24 | 58.26099 | 66.73611 | 7886 ft | 126 kts | 208° |
| 2026-05-05 13:24 | 58.25319 | 66.72892 | 7884 ft | 126 kts | 208° |
| 2026-05-05 13:25 | 58.24527 | 66.72162 | 7886 ft | 126 kts | 208° |
| 2026-05-05 13:25 | 58.23733 | 66.71431 | 7887 ft | 127 kts | 208° |
| 2026-05-05 13:25 | 58.22939 | 66.70702 | 7884 ft | 127 kts | 208° |
| 2026-05-05 13:25 | 58.22131 | 66.69957 | 7887 ft | 130 kts | 208° |
| 2026-05-05 13:26 | 58.21330 | 66.69221 | 7886 ft | 129 kts | 207° |
| 2026-05-05 13:26 | 58.20518 | 66.68476 | 7889 ft | 130 kts | 207° |
| 2026-05-05 13:26 | 58.19706 | 66.67731 | 7887 ft | 129 kts | 208° |
| 2026-05-05 13:26 | 58.18899 | 66.66989 | 7888 ft | 128 kts | 207° |
| 2026-05-05 13:27 | 58.18094 | 66.66251 | 7887 ft | 129 kts | 207° |
| 2026-05-05 13:27 | 58.17288 | 66.65513 | 7885 ft | 128 kts | 207° |
| 2026-05-05 13:27 | 58.16487 | 66.64779 | 7890 ft | 127 kts | 208° |
| 2026-05-05 13:27 | 58.15691 | 66.64051 | 7888 ft | 129 kts | 207° |
| 2026-05-05 13:28 | 58.14886 | 66.63313 | 7887 ft | 129 kts | 208° |
| 2026-05-05 13:28 | 58.14076 | 66.62572 | 7886 ft | 129 kts | 207° |
| 2026-05-05 13:28 | 58.13267 | 66.61833 | 7881 ft | 129 kts | 207° |
| 2026-05-05 13:28 | 58.12461 | 66.61095 | 7881 ft | 128 kts | 207° |
| 2026-05-05 13:29 | 58.11667 | 66.60370 | 7883 ft | 128 kts | 207° |
| 2026-05-05 13:29 | 58.10868 | 66.59641 | 7882 ft | 127 kts | 207° |
| 2026-05-05 13:29 | 58.10071 | 66.58914 | 7874 ft | 127 kts | 207° |
| 2026-05-05 13:29 | 58.09273 | 66.58186 | 7883 ft | 127 kts | 207° |
| 2026-05-05 13:30 | 58.08485 | 66.57468 | 7883 ft | 127 kts | 207° |
| 2026-05-05 13:30 | 58.07688 | 66.56742 | 7884 ft | 127 kts | 208° |
| 2026-05-05 13:30 | 58.06888 | 66.56013 | 7886 ft | 128 kts | 207° |
| 2026-05-05 13:30 | 58.06085 | 66.55282 | 7886 ft | 128 kts | 208° |
| 2026-05-05 13:31 | 58.05279 | 66.54549 | 7885 ft | 128 kts | 207° |
| 2026-05-05 13:31 | 58.04479 | 66.53822 | 7882 ft | 127 kts | 207° |
| 2026-05-05 13:31 | 58.03692 | 66.53107 | 7883 ft | 127 kts | 207° |
| 2026-05-05 13:31 | 58.02888 | 66.52376 | 7886 ft | 129 kts | 207° |
| 2026-05-05 13:32 | 58.02081 | 66.51643 | 7884 ft | 129 kts | 207° |
| 2026-05-05 13:32 | 58.01277 | 66.50913 | 7884 ft | 128 kts | 207° |
| 2026-05-05 13:32 | 58.00475 | 66.50186 | 7883 ft | 127 kts | 207° |
| 2026-05-05 13:32 | 57.99676 | 66.49461 | 7886 ft | 128 kts | 207° |
| 2026-05-05 13:33 | 57.98874 | 66.48734 | 7885 ft | 128 kts | 207° |
| 2026-05-05 13:33 | 57.98081 | 66.48017 | 7885 ft | 128 kts | 207° |
| 2026-05-05 13:33 | 57.97275 | 66.47287 | 7886 ft | 128 kts | 207° |
| 2026-05-05 13:33 | 57.96470 | 66.46559 | 7883 ft | 128 kts | 207° |
| 2026-05-05 13:34 | 57.95667 | 66.45832 | 7883 ft | 128 kts | 207° |
| 2026-05-05 13:34 | 57.95138 | 66.45354 | 7881 ft | 127 kts | 207° |
| 2026-05-05 13:34 | 57.94337 | 66.44630 | 7881 ft | 128 kts | 207° |
| 2026-05-05 13:34 | 57.93274 | 66.43671 | 7885 ft | 128 kts | 207° |
| 2026-05-05 13:35 | 57.92740 | 66.43189 | 7887 ft | 128 kts | 207° |
| 2026-05-05 13:35 | 57.91934 | 66.42461 | 7886 ft | 128 kts | 207° |
| 2026-05-05 13:35 | 57.91130 | 66.41736 | 7885 ft | 128 kts | 207° |
| 2026-05-05 13:35 | 57.90324 | 66.41009 | 7883 ft | 128 kts | 207° |
| 2026-05-05 13:36 | 57.89518 | 66.40284 | 7886 ft | 128 kts | 207° |
| 2026-05-05 13:36 | 57.88711 | 66.39556 | 7886 ft | 129 kts | 207° |
| 2026-05-05 13:36 | 57.87912 | 66.38838 | 7886 ft | 129 kts | 207° |
| 2026-05-05 13:36 | 57.87105 | 66.38112 | 7885 ft | 128 kts | 207° |
| 2026-05-05 13:37 | 57.86300 | 66.37387 | 7887 ft | 129 kts | 207° |
| 2026-05-05 13:37 | 57.85494 | 66.36664 | 7889 ft | 128 kts | 207° |
| 2026-05-05 13:37 | 57.84682 | 66.35933 | 7891 ft | 129 kts | 207° |
| 2026-05-05 13:37 | 57.83869 | 66.35205 | 7890 ft | 129 kts | 207° |
| 2026-05-05 13:38 | 57.83058 | 66.34476 | 7890 ft | 129 kts | 207° |
| 2026-05-05 13:38 | 57.82237 | 66.33739 | 7890 ft | 132 kts | 207° |
| 2026-05-05 13:38 | 57.81412 | 66.33000 | 7892 ft | 130 kts | 207° |
| 2026-05-05 13:38 | 57.80602 | 66.32275 | 7891 ft | 130 kts | 207° |
| 2026-05-05 13:39 | 57.79789 | 66.31547 | 7894 ft | 129 kts | 207° |
| 2026-05-05 13:39 | 57.78976 | 66.30819 | 7895 ft | 130 kts | 207° |
| 2026-05-05 13:39 | 57.78151 | 66.30079 | 7893 ft | 131 kts | 207° |
| 2026-05-05 13:39 | 57.77329 | 66.29346 | 7894 ft | 130 kts | 207° |
| 2026-05-05 13:40 | 57.76507 | 66.28610 | 7895 ft | 132 kts | 207° |
| 2026-05-05 13:40 | 57.75687 | 66.27877 | 7896 ft | 132 kts | 207° |
| 2026-05-05 13:40 | 57.74860 | 66.27141 | 7892 ft | 131 kts | 207° |
| 2026-05-05 13:40 | 57.74038 | 66.26407 | 7890 ft | 130 kts | 207° |
| 2026-05-05 13:41 | 57.73222 | 66.25680 | 7887 ft | 130 kts | 207° |
| 2026-05-05 13:41 | 57.72412 | 66.24957 | 7889 ft | 129 kts | 207° |
| 2026-05-05 13:41 | 57.71595 | 66.24230 | 7892 ft | 130 kts | 207° |
| 2026-05-05 13:41 | 57.70776 | 66.23500 | 7896 ft | 130 kts | 207° |
| 2026-05-05 13:42 | 57.69951 | 66.22766 | 7891 ft | 132 kts | 207° |
| 2026-05-05 13:42 | 57.69136 | 66.22040 | 7890 ft | 130 kts | 207° |
| 2026-05-05 13:42 | 57.68315 | 66.21310 | 7890 ft | 130 kts | 207° |
| 2026-05-05 13:42 | 57.67490 | 66.20577 | 7895 ft | 132 kts | 207° |
| 2026-05-05 13:43 | 57.66669 | 66.19806 | 7892 ft | 131 kts | 216° |
| 2026-05-05 13:43 | 57.66008 | 66.18657 | 7896 ft | 129 kts | 228° |
| 2026-05-05 13:43 | 57.65374 | 66.17495 | 7896 ft | 129 kts | 227° |
| 2026-05-05 13:43 | 57.64729 | 66.16325 | 7901 ft | 130 kts | 227° |
| 2026-05-05 13:44 | 57.64078 | 66.15146 | 7897 ft | 129 kts | 227° |
| 2026-05-05 13:44 | 57.63428 | 66.13971 | 7899 ft | 130 kts | 227° |
| 2026-05-05 13:44 | 57.62786 | 66.12814 | 7897 ft | 129 kts | 227° |
| 2026-05-05 13:44 | 57.62138 | 66.11647 | 7894 ft | 129 kts | 227° |
| 2026-05-05 13:45 | 57.61495 | 66.10489 | 7899 ft | 129 kts | 227° |
| 2026-05-05 13:45 | 57.60845 | 66.09318 | 7896 ft | 130 kts | 227° |
| 2026-05-05 13:45 | 57.60202 | 66.08160 | 7892 ft | 130 kts | 227° |
| 2026-05-05 13:45 | 57.59551 | 66.06989 | 7893 ft | 130 kts | 227° |
| 2026-05-05 13:46 | 57.58900 | 66.05820 | 7892 ft | 129 kts | 227° |
| 2026-05-05 13:46 | 57.58253 | 66.04657 | 7892 ft | 129 kts | 227° |
| 2026-05-05 13:46 | 57.57608 | 66.03501 | 7891 ft | 128 kts | 227° |
| 2026-05-05 13:46 | 57.56964 | 66.02342 | 7900 ft | 130 kts | 227° |
| 2026-05-05 13:47 | 57.56318 | 66.01184 | 7894 ft | 130 kts | 227° |
| 2026-05-05 13:47 | 57.55669 | 66.00020 | 7895 ft | 130 kts | 227° |
| 2026-05-05 13:47 | 57.55019 | 65.98856 | 7894 ft | 129 kts | 227° |
| 2026-05-05 13:47 | 57.54370 | 65.97693 | 7895 ft | 129 kts | 227° |
| 2026-05-05 13:48 | 57.53723 | 65.96534 | 7897 ft | 129 kts | 227° |
| 2026-05-05 13:48 | 57.53078 | 65.95380 | 7897 ft | 129 kts | 227° |
| 2026-05-05 13:48 | 57.52422 | 65.94207 | 7899 ft | 132 kts | 227° |
| 2026-05-05 13:48 | 57.51758 | 65.93018 | 7902 ft | 133 kts | 227° |
| 2026-05-05 13:49 | 57.51098 | 65.91841 | 7900 ft | 132 kts | 227° |
| 2026-05-05 13:49 | 57.50431 | 65.90648 | 7902 ft | 133 kts | 227° |
| 2026-05-05 13:49 | 57.49760 | 65.89452 | 7906 ft | 133 kts | 227° |
| 2026-05-05 13:49 | 57.48973 | 65.88563 | 7899 ft | 134 kts | 194° |
| 2026-05-05 13:50 | 57.48064 | 65.88257 | 7902 ft | 134 kts | 191° |
| 2026-05-05 13:50 | 57.47145 | 65.87934 | 7903 ft | 135 kts | 191° |
| 2026-05-05 13:50 | 57.46225 | 65.87597 | 7901 ft | 134 kts | 192° |
| 2026-05-05 13:50 | 57.45319 | 65.87261 | 7901 ft | 134 kts | 192° |
| 2026-05-05 13:51 | 57.44403 | 65.86919 | 7901 ft | 134 kts | 192° |
| 2026-05-05 13:51 | 57.43481 | 65.86575 | 7899 ft | 136 kts | 192° |
| 2026-05-05 13:51 | 57.42556 | 65.86229 | 7901 ft | 135 kts | 192° |
| 2026-05-05 13:51 | 57.41634 | 65.85886 | 7900 ft | 135 kts | 192° |
| 2026-05-05 13:52 | 57.40714 | 65.85542 | 7901 ft | 135 kts | 192° |
| 2026-05-05 13:52 | 57.39794 | 65.85199 | 7900 ft | 135 kts | 192° |
| 2026-05-05 13:52 | 57.38884 | 65.84860 | 7903 ft | 136 kts | 192° |
| 2026-05-05 13:52 | 57.37955 | 65.84513 | 7902 ft | 136 kts | 192° |
| 2026-05-05 13:53 | 57.37020 | 65.84167 | 7903 ft | 137 kts | 192° |
| 2026-05-05 13:53 | 57.36090 | 65.83819 | 7902 ft | 136 kts | 192° |
| 2026-05-05 13:53 | 57.35165 | 65.83475 | 7905 ft | 135 kts | 192° |
| 2026-05-05 13:53 | 57.34252 | 65.83135 | 7899 ft | 135 kts | 192° |
| 2026-05-05 13:54 | 57.33327 | 65.82792 | 7901 ft | 135 kts | 192° |
| 2026-05-05 13:54 | 57.32401 | 65.82448 | 7905 ft | 136 kts | 192° |
| 2026-05-05 13:54 | 57.31459 | 65.82100 | 7900 ft | 137 kts | 192° |
| 2026-05-05 13:54 | 57.30524 | 65.81751 | 7902 ft | 137 kts | 192° |
| 2026-05-05 13:55 | 57.29586 | 65.81403 | 7907 ft | 138 kts | 192° |
| 2026-05-05 13:55 | 57.28640 | 65.81052 | 7904 ft | 138 kts | 192° |
| 2026-05-05 13:55 | 57.27711 | 65.80708 | 7903 ft | 137 kts | 192° |
| 2026-05-05 13:55 | 57.26772 | 65.80361 | 7899 ft | 137 kts | 192° |
| 2026-05-05 13:56 | 57.25841 | 65.80017 | 7900 ft | 136 kts | 192° |
| 2026-05-05 13:56 | 57.24905 | 65.79670 | 7898 ft | 138 kts | 192° |
| 2026-05-05 13:56 | 57.23963 | 65.79322 | 7899 ft | 137 kts | 192° |
| 2026-05-05 13:56 | 57.23040 | 65.78981 | 7896 ft | 137 kts | 192° |
| 2026-05-05 13:57 | 57.22107 | 65.78638 | 7894 ft | 137 kts | 192° |
| 2026-05-05 13:57 | 57.21172 | 65.78297 | 7893 ft | 137 kts | 191° |
| 2026-05-05 13:57 | 57.20235 | 65.77955 | 7895 ft | 137 kts | 191° |
| 2026-05-05 13:57 | 57.19295 | 65.77612 | 7894 ft | 138 kts | 191° |
| 2026-05-05 13:58 | 57.18355 | 65.77271 | 7894 ft | 138 kts | 191° |
| 2026-05-05 13:58 | 57.17382 | 65.76914 | 7772 ft | 146 kts | 191° |
| 2026-05-05 13:58 | 57.16385 | 65.76549 | 7651 ft | 149 kts | 191° |
| 2026-05-05 13:58 | 57.15359 | 65.76175 | 7534 ft | 151 kts | 191° |
| 2026-05-05 13:59 | 57.13276 | 65.75417 | 7287 ft | 153 kts | 191° |
| 2026-05-05 13:59 | 57.12236 | 65.75040 | 7163 ft | 152 kts | 191° |
| 2026-05-05 14:00 | 57.10162 | 65.74287 | 6919 ft | 152 kts | 191° |
| 2026-05-05 14:00 | 57.09473 | 65.74037 | 6836 ft | 152 kts | 190° |
| 2026-05-05 14:00 | 57.08100 | 65.73530 | 6675 ft | 151 kts | 193° |
| 2026-05-05 14:00 | 57.07207 | 65.72560 | 6538 ft | 151 kts | 232° |
| 2026-05-05 14:01 | 57.06849 | 65.70835 | 6404 ft | 143 kts | 273° |
| 2026-05-05 14:01 | 57.06896 | 65.69028 | 6281 ft | 142 kts | 278° |
| 2026-05-05 14:01 | 57.06926 | 65.67210 | 6155 ft | 142 kts | 276° |
| 2026-05-05 14:01 | 57.06937 | 65.65405 | 5976 ft | 144 kts | 275° |
| 2026-05-05 14:02 | 57.06941 | 65.63537 | 5776 ft | 148 kts | 275° |
| 2026-05-05 14:02 | 57.06942 | 65.61635 | 5572 ft | 149 kts | 275° |
| 2026-05-05 14:02 | 57.06944 | 65.59727 | 5364 ft | 148 kts | 275° |
| 2026-05-05 14:02 | 57.06943 | 65.57838 | 5160 ft | 147 kts | 275° |
| 2026-05-05 14:03 | 57.06942 | 65.55964 | 4958 ft | 146 kts | 275° |
| 2026-05-05 14:03 | 57.07161 | 65.54219 | 4752 ft | 137 kts | 304° |
| 2026-05-05 14:03 | 57.07768 | 65.52931 | 4518 ft | 134 kts | 325° |
| 2026-05-05 14:03 | 57.08466 | 65.51767 | 4213 ft | 134 kts | 321° |
| 2026-05-05 14:04 | 57.09074 | 65.50681 | 3896 ft | 113 kts | 321° |
| 2026-05-05 14:04 | 57.09642 | 65.49669 | 3442 ft | 114 kts | 321° |
| 2026-05-05 14:04 | 57.10202 | 65.48642 | 2977 ft | 113 kts | 319° |
| 2026-05-05 14:04 | 57.10760 | 65.47614 | 2516 ft | 114 kts | 319° |
| 2026-05-05 14:05 | 57.11314 | 65.46587 | 2058 ft | 115 kts | 317° |
| 2026-05-05 14:05 | 57.11847 | 65.45594 | 1877 ft | 106 kts | 317° |
| 2026-05-05 14:05 | 57.12355 | 65.44649 | 1738 ft | 101 kts | 316° |
| 2026-05-05 14:05 | 57.12849 | 65.43729 | 1603 ft | 99 kts | 316° |
| 2026-05-05 14:06 | 57.13325 | 65.42853 | 1463 ft | 97 kts | 316° |
| 2026-05-05 14:06 | 57.13805 | 65.41957 | 1366 ft | 96 kts | 316° |
| 2026-05-05 14:06 | 57.14275 | 65.41090 | 1231 ft | 96 kts | 315° |
| 2026-05-05 14:06 | 57.14735 | 65.40236 | 1100 ft | 92 kts | 315° |
| 2026-05-05 14:07 | 57.15180 | 65.39410 | 971 ft | 89 kts | 314° |
| 2026-05-05 14:07 | 57.15616 | 65.38605 | 852 ft | 88 kts | 314° |
| 2026-05-05 14:07 | 57.16022 | 65.37853 | 743 ft | 79 kts | 313° |
| 2026-05-05 14:07 | 57.16402 | 65.37144 | 640 ft | 76 kts | 313° |
| 2026-05-05 14:08 | 57.16750 | 65.36498 | 547 ft | 65 kts | 312° |
| 2026-05-05 14:08 | 57.17055 | 65.35925 | 440 ft | 63 kts | 312° |
| 2026-05-05 14:08 | 57.17365 | 65.35362 | 348 ft | 60 kts | 312° |
| 2026-05-05 14:08 | 57.17637 | 65.34859 | 333 ft | 45 kts | 315° |
| 2026-05-05 14:09 | 57.17797 | 65.34565 | 333 ft | 23 kts | 315° |
| 2026-05-05 14:09 | 57.17889 | 65.34486 | 335 ft | 11 kts | 41° |
| 2026-05-05 14:09 | 57.17940 | 65.34582 | 335 ft | 10 kts | 47° |
| 2026-05-05 14:09 | 57.17984 | 65.34663 | 335 ft | 8 kts | 43° |
| 2026-05-05 14:10 | 57.18003 | 65.34735 | 335 ft | 6 kts | 113° |
| 2026-05-05 14:10 | 57.17970 | 65.34801 | 335 ft | 7 kts | 136° |
| 2026-05-05 14:10 | 57.17935 | 65.34865 | 333 ft | 6 kts | 143° |
| 2026-05-05 14:10 | 57.17914 | 65.34850 | 334 ft | 4 kts | 241° |
| 2026-05-05 14:11 | 57.17899 | 65.34820 | 335 ft | 3 kts | 225° |
| 2026-05-05 14:11 | 57.17894 | 65.34812 | 335 ft | 0 kts | 225° |